createdAt,value
2019-02-06T00:03:06.407Z,101971.69
2019-02-06T00:08:12.381Z,101973.86
2019-02-06T00:13:17.599Z,101966.79
2019-02-06T00:18:23.403Z,101981.20
2019-02-06T00:23:29.206Z,101981.16
2019-02-06T00:28:34.890Z,101990.11
2019-02-06T00:33:40.402Z,101982.09
2019-02-06T00:38:45.808Z,101993.69
2019-02-06T00:43:51.173Z,101990.83
2019-02-06T00:48:56.752Z,101996.05
2019-02-06T00:54:01.998Z,101995.10
2019-02-06T00:59:08.202Z,102009.42
2019-02-06T01:04:13.735Z,101996.53
2019-02-06T01:09:19.404Z,101997.62
2019-02-06T01:14:24.860Z,101999.13
2019-02-06T01:19:30.099Z,102017.44
2019-02-06T01:24:35.437Z,102010.16
2019-02-06T01:29:41.057Z,101999.41
2019-02-06T01:34:46.713Z,102009.95
2019-02-06T01:39:51.966Z,102007.76
2019-02-06T01:44:57.241Z,102003.72
2019-02-06T01:50:02.583Z,102011.80
2019-02-06T01:55:13.579Z,102007.38
2019-02-06T02:00:21.345Z,102012.53
2019-02-06T02:05:27.447Z,102021.62
2019-02-06T02:10:33.029Z,102030.15
2019-02-06T02:15:38.801Z,102034.92
2019-02-06T02:20:44.360Z,102047.63
2019-02-06T02:25:50.032Z,102039.34
2019-02-06T02:30:55.957Z,102040.08
2019-02-06T02:36:14.295Z,102033.31
2019-02-06T02:41:08.365Z,102034.60
2019-02-06T02:46:13.916Z,102041.64
2019-02-06T02:51:19.597Z,102043.48
2019-02-06T02:56:25.109Z,102049.40
2019-02-06T03:01:36.222Z,102054.29
2019-02-06T03:06:43.447Z,102043.77
2019-02-06T03:11:50.005Z,102051.72
2019-02-06T03:16:55.589Z,102050.56
2019-02-06T03:22:00.947Z,102050.95
2019-02-06T03:27:06.165Z,102058.30
2019-02-06T03:32:11.412Z,102050.67
2019-02-06T03:37:16.559Z,102059.58
2019-02-06T03:42:22.141Z,102064.73
2019-02-06T03:47:27.645Z,102063.00
2019-02-06T03:52:33.523Z,102068.78
2019-02-06T03:57:39.693Z,102075.05
2019-02-06T04:02:45.050Z,102074.88
2019-02-06T04:07:50.233Z,102087.56
2019-02-06T04:12:55.904Z,102087.39
2019-02-06T04:18:01.280Z,102080.08
2019-02-06T04:23:06.692Z,102083.50
2019-02-06T04:28:12.562Z,102090.05
2019-02-06T04:33:17.932Z,102093.91
2019-02-06T04:38:23.582Z,102097.57
2019-02-06T04:43:29.234Z,102102.83
2019-02-06T04:48:34.614Z,102104.75
2019-02-06T04:53:40.283Z,102112.97
2019-02-06T04:58:45.833Z,102109.62
2019-02-06T05:03:52.342Z,102123.24
2019-02-06T05:08:57.773Z,102130.14
2019-02-06T05:14:03.179Z,102139.90
2019-02-06T05:19:08.625Z,102147.63
2019-02-06T05:24:14.167Z,102148.19
2019-02-06T05:29:19.629Z,102147.98
2019-02-06T05:34:24.890Z,102158.51
2019-02-06T05:39:30.246Z,102168.89
2019-02-06T05:44:35.399Z,102164.70
2019-02-06T05:49:40.784Z,102177.64
2019-02-06T05:54:46.319Z,102177.17
2019-02-06T05:59:51.564Z,102187.80
2019-02-06T06:04:57.081Z,102196.80
2019-02-06T06:10:02.400Z,102203.41
2019-02-06T06:15:09.418Z,102198.91
2019-02-06T06:20:17.516Z,102209.30
2019-02-06T06:25:22.878Z,102215.67
2019-02-06T06:30:28.058Z,102214.91
2019-02-06T06:35:33.762Z,102230.67
2019-02-06T06:40:39.293Z,102229.09
2019-02-06T06:45:44.667Z,102231.04
2019-02-06T06:50:50.186Z,102244.95
2019-02-06T06:55:55.850Z,102251.56
2019-02-06T07:01:01.319Z,102263.63
2019-02-06T07:06:07.083Z,102261.66
2019-02-06T07:11:12.545Z,102271.06
2019-02-06T07:16:17.797Z,102282.84
2019-02-06T07:21:23.140Z,102292.40
2019-02-06T07:26:28.730Z,102294.33
2019-02-06T07:31:34.752Z,102291.55
2019-02-06T07:36:40.138Z,102303.76
2019-02-06T07:41:45.930Z,102293.87
2019-02-06T07:46:51.585Z,102311.42
2019-02-06T07:51:56.846Z,102318.33
2019-02-06T07:57:02.730Z,102316.90
2019-02-06T08:02:08.277Z,102311.44
2019-02-06T08:07:13.636Z,102319.91
2019-02-06T08:12:19.826Z,102314.49
2019-02-06T08:17:25.727Z,102312.84
2019-02-06T08:22:31.192Z,102316.86
2019-02-06T08:27:36.572Z,102309.19
2019-02-06T08:32:41.760Z,102310.47
2019-02-06T08:37:47.432Z,102318.95
2019-02-06T08:42:52.993Z,102316.52
2019-02-06T08:47:58.371Z,102321.72
2019-02-06T08:53:04.735Z,102320.52
2019-02-06T08:58:10.100Z,102326.23
2019-02-06T09:03:15.765Z,102326.70
2019-02-06T09:08:21.490Z,102335.84
2019-02-06T09:13:26.892Z,102345.79
2019-02-06T09:18:32.354Z,102337.92
2019-02-06T09:23:37.818Z,102339.78
2019-02-06T09:28:43.473Z,102358.52
2019-02-06T09:33:48.840Z,102357.64
2019-02-06T09:38:54.086Z,102351.16
2019-02-06T09:43:59.340Z,102356.70
2019-02-06T09:49:05.016Z,102360.34
2019-02-06T09:54:11.210Z,102370.17
2019-02-06T09:59:16.554Z,102367.62
2019-02-06T10:04:21.910Z,102370.62
2019-02-06T10:09:27.307Z,102361.52
2019-02-06T10:14:32.825Z,102365.76
2019-02-06T10:19:38.372Z,102375.22
2019-02-06T10:24:43.858Z,102379.24
2019-02-06T10:29:49.627Z,102372.78
2019-02-06T10:34:55.299Z,102380.72
2019-02-06T10:40:00.684Z,102388.02
2019-02-06T10:45:09.133Z,102386.39
2019-02-06T10:50:27.444Z,102395.89
2019-02-06T10:55:32.913Z,102390.89
2019-02-06T11:00:47.262Z,102397.55
2019-02-06T11:05:52.723Z,102388.33
2019-02-06T11:10:58.196Z,102383.02
2019-02-06T11:16:03.762Z,102389.80
2019-02-06T11:21:09.039Z,102392.89
2019-02-06T11:26:14.989Z,102382.19
2019-02-06T11:31:22.085Z,102376.55
2019-02-06T11:36:28.061Z,102390.82
2019-02-06T11:41:34.763Z,102376.27
2019-02-06T11:46:40.463Z,102374.87
2019-02-06T11:51:46.101Z,102383.34
2019-02-06T11:56:51.334Z,102385.66
2019-02-06T12:01:56.832Z,102366.49
2019-02-06T12:07:02.359Z,102366.01
2019-02-06T12:12:07.930Z,102345.37
2019-02-06T12:17:13.394Z,102355.57
2019-02-06T12:22:20.118Z,102348.72
2019-02-06T12:27:25.444Z,102346.38
2019-02-06T12:32:31.008Z,102339.27
2019-02-06T12:37:36.970Z,102338.98
2019-02-06T12:42:42.638Z,102342.41
2019-02-06T12:47:48.106Z,102346.53
2019-02-06T12:52:57.091Z,102340.03
2019-02-06T12:58:01.293Z,102341.80
2019-02-06T13:03:06.900Z,102335.95
2019-02-06T13:08:12.516Z,102322.84
2019-02-06T13:13:18.698Z,102314.78
2019-02-06T13:18:24.515Z,102305.08
2019-02-06T13:23:30.435Z,102297.84
2019-02-06T13:28:35.967Z,102302.45
2019-02-06T13:33:41.247Z,102300.30
2019-02-06T13:38:46.601Z,102294.37
2019-02-06T13:43:51.967Z,102287.91
2019-02-06T13:48:57.522Z,102292.62
2019-02-06T13:54:03.319Z,102286.61
2019-02-06T13:59:08.757Z,102268.02
2019-02-06T14:04:14.119Z,102277.72
2019-02-06T14:09:22.828Z,102264.53
2019-02-06T14:14:27.183Z,102260.46
2019-02-06T14:19:32.664Z,102245.34
2019-02-06T14:24:40.983Z,102238.83
2019-02-06T14:30:20.768Z,102235.08
2019-02-06T14:35:32.195Z,102222.06
2019-02-06T14:40:49.503Z,102220.14
2019-02-06T14:46:09.452Z,102216.27
2019-02-06T14:51:24.127Z,102230.30
2019-02-06T14:56:38.415Z,102235.67
2019-02-06T15:01:52.589Z,102234.15
2019-02-06T15:07:03.446Z,102234.05
2019-02-06T15:12:37.625Z,102241.23
2019-02-06T15:17:51.469Z,102246.98
2019-02-06T15:23:12.109Z,102235.83
2019-02-06T15:28:30.228Z,102219.18
2019-02-06T15:33:41.968Z,102235.90
2019-02-06T15:38:52.927Z,102219.92
2019-02-06T15:44:13.686Z,102214.66
2019-02-06T15:49:31.104Z,102216.86
2019-02-06T15:54:56.542Z,102208.29
2019-02-06T16:00:27.434Z,102194.80
2019-02-06T16:06:01.599Z,102197.16
2019-02-06T16:11:19.188Z,102213.37
2019-02-06T16:16:45.630Z,102212.11
2019-02-06T16:22:00.969Z,102212.77
2019-02-06T16:27:15.234Z,102186.52
2019-02-06T16:32:46.321Z,102192.26
2019-02-06T16:38:04.107Z,102187.61
2019-02-06T16:43:32.190Z,102174.13
2019-02-06T16:48:46.455Z,102168.09
2019-02-06T16:53:57.344Z,102160.92
2019-02-06T16:59:30.265Z,102154.67
2019-02-06T17:04:50.743Z,102143.16
2019-02-06T17:10:22.148Z,102129.52
2019-02-06T17:15:47.179Z,102091.61
2019-02-06T17:21:01.354Z,102102.98
2019-02-06T17:26:15.958Z,102118.80
2019-02-06T17:31:43.943Z,102114.89
2019-02-06T17:36:54.766Z,102109.95
2019-02-06T17:42:16.121Z,102091.78
2019-02-06T17:47:42.796Z,102096.04
2019-02-06T17:52:59.366Z,102087.45
2019-02-06T17:58:06.700Z,102076.87
2019-02-06T18:03:15.084Z,102076.87
2019-02-06T18:08:20.782Z,102062.45
2019-02-06T18:13:26.370Z,102045.34
2019-02-06T18:18:32.134Z,102048.49
2019-02-06T18:23:37.535Z,102047.56
2019-02-06T18:28:43.472Z,102039.26
2019-02-06T18:33:49.131Z,102043.83
2019-02-06T18:38:54.482Z,102030.03
2019-02-06T18:44:00.048Z,102024.50
2019-02-06T18:49:06.121Z,102017.05
2019-02-06T18:54:11.586Z,102008.20
2019-02-06T18:59:16.839Z,102012.55
2019-02-06T19:04:22.068Z,102006.14
2019-02-06T19:09:28.966Z,102001.66
2019-02-06T19:14:34.299Z,101989.53
2019-02-06T19:19:39.899Z,101982.59
2019-02-06T19:24:45.086Z,101982.94
2019-02-06T19:29:51.430Z,101983.61
2019-02-06T19:34:56.794Z,101989.77
2019-02-06T19:40:02.310Z,101992.11
2019-02-06T19:45:13.146Z,101989.48
2019-02-06T19:50:27.531Z,101984.66
2019-02-06T19:55:32.779Z,101981.47
2019-02-06T20:00:38.570Z,101975.63
2019-02-06T20:05:44.626Z,101975.34
2019-02-06T20:10:52.150Z,101958.87
2019-02-06T20:15:57.947Z,101957.73
2019-02-06T20:21:03.259Z,101955.48
2019-02-06T20:26:09.031Z,101956.34
2019-02-06T20:31:14.691Z,101958.96
2019-02-06T20:36:20.046Z,101947.98
2019-02-06T20:41:25.270Z,101936.09
2019-02-06T20:46:30.639Z,101933.31
2019-02-06T20:51:37.161Z,101936.70
2019-02-06T20:56:42.710Z,101935.70
2019-02-06T21:01:47.966Z,101933.60
2019-02-06T21:06:53.321Z,101937.66
2019-02-06T21:11:58.470Z,101935.52
2019-02-06T21:17:04.659Z,101930.06
2019-02-06T21:22:10.512Z,101910.10
2019-02-06T21:27:17.212Z,101916.61
2019-02-06T21:32:22.328Z,101899.59
2019-02-06T21:37:27.462Z,101894.82
2019-02-06T21:42:32.647Z,101890.35
2019-02-06T21:47:38.195Z,101876.86
2019-02-06T21:52:44.856Z,101869.72
2019-02-06T21:57:51.376Z,101876.02
2019-02-06T22:02:57.065Z,101868.15
2019-02-06T22:08:02.387Z,101861.56
2019-02-06T22:13:07.584Z,101848.42
2019-02-06T22:18:12.849Z,101836.50
2019-02-06T22:23:18.420Z,101848.58
2019-02-06T22:28:23.882Z,101854.45
2019-02-06T22:33:29.238Z,101831.05
2019-02-06T22:38:34.911Z,101837.11
2019-02-06T22:43:40.478Z,101836.20
2019-02-06T22:48:45.912Z,101834.14
2019-02-06T22:53:51.193Z,101832.82
2019-02-06T22:58:56.710Z,101836.14
2019-02-06T23:04:02.306Z,101816.80
2019-02-06T23:09:08.359Z,101805.72
2019-02-06T23:14:17.446Z,101806.55
2019-02-06T23:19:20.721Z,101799.84
2019-02-06T23:24:26.418Z,101785.73
2019-02-06T23:29:32.105Z,101791.09
2019-02-06T23:34:37.899Z,101785.64
2019-02-06T23:39:43.493Z,101770.88
2019-02-06T23:44:48.586Z,101761.54
2019-02-06T23:49:53.763Z,101756.80
2019-02-06T23:54:58.967Z,101751.41
